Time;durP1;ratioP1;P1;durP2;ratioP2;P2;SDS_P1;SDS_P2;PMS_P1;PMS_P2;Temp;Humidity;BMP_temperature;BMP_pressure;BME280_temperature;BME280_humidity;BME280_pressure;Samples;Min_cycle;Max_cycle;Signal;HPM_P1;HPM_P2
2021/12/18 00:00:10;;;;;;;10.02;8.55;;;;;;;;;;5058438;28;24418;-58
2021/12/18 00:02:35;;;;;;;10.90;8.77;;;;;;;;;;5053329;28;24444;-59
2021/12/18 00:05:00;;;;;;;10.63;8.43;;;;;;;;;;5058887;28;24435;-58
2021/12/18 00:07:26;;;;;;;10.93;8.70;;;;;;;;;;5063070;28;24431;-58
2021/12/18 00:09:53;;;;;;;13.17;8.50;;;;;;;;;;5058130;28;24418;-59
2021/12/18 00:12:18;;;;;;;10.93;8.45;;;;;;;;;;5049320;28;24426;-58
2021/12/18 00:14:43;;;;;;;11.47;8.50;;;;;;;;;;5063468;28;24969;-58
2021/12/18 00:17:08;;;;;;;13.37;8.47;;;;;;;;;;5058629;28;24418;-59
2021/12/18 00:19:34;;;;;;;10.60;8.20;;;;;;;;;;5057009;28;24500;-58
2021/12/18 00:22:00;;;;;;;9.83;7.90;;;;;;;;;;5055325;28;24407;-59
2021/12/18 00:24:25;;;;;;;12.10;7.93;;;;;;;;;;5064897;28;24495;-59
2021/12/18 00:26:50;;;;;;;12.10;8.07;;;;;;;;;;5064370;28;24528;-56
2021/12/18 00:29:15;;;;;;;11.03;7.90;;;;;;;;;;5056999;28;25002;-59
2021/12/18 00:31:41;;;;;;;10.98;7.85;;;;;;;;;;5061528;28;24414;-56
2021/12/18 00:34:06;;;;;;;11.60;7.30;;;;;;;;;;5058302;28;24534;-57
2021/12/18 00:36:31;;;;;;;11.52;8.70;;;;;;;;;;5059749;28;24753;-56
2021/12/18 00:38:56;;;;;;;12.00;7.72;;;;;;;;;;5064579;28;24518;-57
2021/12/18 00:41:47;;;;;;;9.60;7.37;;;;;;;;;;5053088;28;24418;-59
2021/12/18 00:44:13;;;;;;;12.45;8.00;;;;;;;;;;5061978;28;24522;-57
2021/12/18 00:46:40;;;;;;;11.65;7.60;;;;;;;;;;5059522;28;24573;-56
2021/12/18 00:49:06;;;;;;;9.33;7.60;;;;;;;;;;5061165;28;24919;-56
2021/12/18 00:51:31;;;;;;;10.10;7.45;;;;;;;;;;5051350;28;24438;-57
2021/12/18 00:53:57;;;;;;;8.70;7.25;;;;;;;;;;5060130;28;24905;-57
2021/12/18 00:56:22;;;;;;;10.73;7.70;;;;;;;;;;5061682;28;24437;-56
2021/12/18 00:58:49;;;;;;;10.25;8.50;;;;;;;;;;5061303;28;24411;-57
2021/12/18 01:01:14;;;;;;;10.60;9.05;;;;;;;;;;5055712;28;24437;-56
2021/12/18 01:03:41;;;;;;;11.17;8.10;;;;;;;;;;5057510;28;24502;-56
2021/12/18 01:06:06;;;;;;;10.95;8.85;;;;;;;;;;5059584;28;24466;-56
2021/12/18 01:08:31;;;;;;;11.13;8.77;;;;;;;;;;5058887;28;24738;-56
2021/12/18 01:13:27;;;;;;;13.33;9.90;;;;;;;;;;5059883;28;24947;-56
2021/12/18 01:15:55;;;;;;;11.85;8.63;;;;;;;;;;5056509;28;24458;-56
2021/12/18 01:23:48;;;;;;;12.80;8.55;;;;;;;;;;5057928;28;24406;-57
2021/12/18 01:26:13;;;;;;;10.83;8.60;;;;;;;;;;5058127;28;24411;-56
2021/12/18 01:28:39;;;;;;;11.17;9.33;;;;;;;;;;5051637;28;24765;-57
2021/12/18 01:31:04;;;;;;;10.93;8.63;;;;;;;;;;5048896;28;24772;-57
2021/12/18 01:33:29;;;;;;;12.63;9.20;;;;;;;;;;5051075;28;24411;-57
2021/12/18 01:35:55;;;;;;;11.53;9.10;;;;;;;;;;5057459;28;24455;-57
2021/12/18 01:38:22;;;;;;;10.00;8.43;;;;;;;;;;5055129;28;24991;-57
2021/12/18 01:40:48;;;;;;;12.48;9.02;;;;;;;;;;5044105;28;24418;-57
2021/12/18 01:46:15;;;;;;;12.27;9.23;;;;;;;;;;5054119;28;24426;-57
2021/12/18 01:51:33;;;;;;;13.52;9.30;;;;;;;;;;5053270;28;24410;-57
2021/12/18 01:53:58;;;;;;;10.00;8.20;;;;;;;;;;5051134;28;24437;-59
2021/12/18 01:56:25;;;;;;;14.73;9.40;;;;;;;;;;5059353;28;24968;-59
2021/12/18 01:58:50;;;;;;;12.50;9.30;;;;;;;;;;5051793;28;24411;-59
2021/12/18 02:01:16;;;;;;;10.30;8.50;;;;;;;;;;5057664;28;24466;-59
2021/12/18 02:03:41;;;;;;;11.90;8.60;;;;;;;;;;5060587;28;25221;-57
2021/12/18 02:06:07;;;;;;;10.70;9.00;;;;;;;;;;5050163;28;24427;-57
2021/12/18 02:08:34;;;;;;;10.83;9.10;;;;;;;;;;5059207;28;25228;-57
2021/12/18 02:11:11;;;;;;;13.00;9.40;;;;;;;;;;5055015;28;24410;-56
2021/12/18 02:14:06;;;;;;;9.13;8.00;;;;;;;;;;5056074;28;24415;-57
2021/12/18 02:21:55;;;;;;;11.00;9.00;;;;;;;;;;5055668;28;24623;-59
2021/12/18 02:24:24;;;;;;;11.17;9.23;;;;;;;;;;5053492;28;24481;-59
2021/12/18 02:26:49;;;;;;;10.53;8.40;;;;;;;;;;5047815;28;24553;-59
2021/12/18 02:29:16;;;;;;;11.17;8.50;;;;;;;;;;5055280;28;24971;-59
2021/12/18 02:31:42;;;;;;;10.93;8.55;;;;;;;;;;5061549;28;24931;-59
2021/12/18 02:34:16;;;;;;;10.63;8.60;;;;;;;;;;5059011;28;24987;-56
2021/12/18 02:36:46;;;;;;;9.98;8.05;;;;;;;;;;5049140;28;24422;-57
2021/12/18 02:39:39;;;;;;;10.35;7.68;;;;;;;;;;5048146;28;24430;-57
2021/12/18 02:42:10;;;;;;;10.20;8.30;;;;;;;;;;5060006;28;24438;-57
2021/12/18 02:44:39;;;;;;;8.85;7.60;;;;;;;;;;5052630;28;24573;-57
2021/12/18 02:47:04;;;;;;;9.57;7.80;;;;;;;;;;5059715;28;24444;-57
2021/12/18 02:49:29;;;;;;;8.73;7.83;;;;;;;;;;5049649;28;24526;-57
2021/12/18 02:51:54;;;;;;;9.53;7.50;;;;;;;;;;5060045;28;24974;-57
2021/12/18 02:54:19;;;;;;;9.15;7.90;;;;;;;;;;5057721;28;24426;-57
2021/12/18 02:56:45;;;;;;;10.90;8.57;;;;;;;;;;5054387;28;24477;-57
2021/12/18 02:59:10;;;;;;;10.27;7.33;;;;;;;;;;5055938;28;24506;-57
2021/12/18 03:01:37;;;;;;;8.47;7.57;;;;;;;;;;5059640;28;24492;-56
2021/12/18 03:04:12;;;;;;;11.23;8.18;;;;;;;;;;5057613;28;24411;-56
2021/12/18 03:06:42;;;;;;;9.93;7.97;;;;;;;;;;5059169;28;25317;-57
2021/12/18 03:25:33;;;;;;;7.97;7.18;;;;;;;;;;5031055;28;25055;-59
2021/12/18 03:28:00;;;;;;;7.70;6.70;;;;;;;;;;5061533;28;24407;-57
2021/12/18 03:30:25;;;;;;;8.10;7.30;;;;;;;;;;5055308;28;24441;-57
2021/12/18 03:32:50;;;;;;;9.93;8.40;;;;;;;;;;5055420;28;24453;-56
2021/12/18 03:35:16;;;;;;;8.63;7.57;;;;;;;;;;5050387;28;25007;-57
2021/12/18 03:37:41;;;;;;;8.47;7.40;;;;;;;;;;5061704;28;24457;-57
2021/12/18 03:40:08;;;;;;;8.30;7.10;;;;;;;;;;5051537;28;25037;-57
2021/12/18 03:42:34;;;;;;;10.43;8.05;;;;;;;;;;5054931;28;25013;-57
2021/12/18 03:44:59;;;;;;;8.37;7.27;;;;;;;;;;5050129;28;24470;-57
2021/12/18 03:47:24;;;;;;;10.55;7.80;;;;;;;;;;5066240;28;24422;-57
2021/12/18 03:49:49;;;;;;;8.53;7.33;;;;;;;;;;5055407;28;24510;-57
2021/12/18 03:52:14;;;;;;;8.10;7.10;;;;;;;;;;5059003;28;24535;-57
2021/12/18 03:54:39;;;;;;;9.70;8.40;;;;;;;;;;5052872;28;25226;-56
2021/12/18 03:57:05;;;;;;;7.70;6.80;;;;;;;;;;5053516;28;24983;-56
2021/12/18 03:59:30;;;;;;;9.57;7.32;;;;;;;;;;5065402;28;24447;-57
2021/12/18 04:01:55;;;;;;;8.60;7.10;;;;;;;;;;5058265;28;24999;-57
2021/12/18 04:04:20;;;;;;;7.27;6.43;;;;;;;;;;5063941;28;24455;-57
2021/12/18 04:06:46;;;;;;;7.90;7.10;;;;;;;;;;5061156;28;24423;-57
2021/12/18 04:09:11;;;;;;;7.87;7.07;;;;;;;;;;5053271;28;24415;-56
2021/12/18 04:11:37;;;;;;;8.13;7.00;;;;;;;;;;5053779;28;24506;-57
2021/12/18 04:14:03;;;;;;;8.10;7.30;;;;;;;;;;5062098;28;24982;-57
2021/12/18 04:16:29;;;;;;;8.82;7.15;;;;;;;;;;5057572;28;24419;-57
2021/12/18 04:18:54;;;;;;;7.33;6.63;;;;;;;;;;5053807;28;24572;-57
2021/12/18 04:21:19;;;;;;;7.10;6.40;;;;;;;;;;5057313;28;25064;-57
2021/12/18 04:23:44;;;;;;;7.07;6.30;;;;;;;;;;5058752;28;24403;-57
2021/12/18 04:26:09;;;;;;;8.38;6.80;;;;;;;;;;5053535;28;25193;-57
2021/12/18 04:28:34;;;;;;;8.68;7.18;;;;;;;;;;5061709;28;24418;-57
2021/12/18 04:31:00;;;;;;;8.60;7.38;;;;;;;;;;5059511;28;24407;-57
2021/12/18 04:33:26;;;;;;;8.43;7.20;;;;;;;;;;5060931;28;24510;-57
2021/12/18 04:35:51;;;;;;;7.80;7.00;;;;;;;;;;5059870;28;25018;-57
2021/12/18 04:38:18;;;;;;;7.30;6.35;;;;;;;;;;5045583;28;24431;-56
2021/12/18 04:40:44;;;;;;;10.13;7.50;;;;;;;;;;5057656;28;24414;-57
2021/12/18 04:43:09;;;;;;;7.80;7.00;;;;;;;;;;5062724;28;24410;-57
2021/12/18 04:45:35;;;;;;;7.90;7.00;;;;;;;;;;5056339;28;25030;-57
2021/12/18 04:48:00;;;;;;;8.00;7.07;;;;;;;;;;5059482;28;24415;-58
2021/12/18 04:50:26;;;;;;;8.00;6.80;;;;;;;;;;5056788;28;24418;-57
2021/12/18 04:52:51;;;;;;;10.40;7.90;;;;;;;;;;5062782;28;24979;-57
2021/12/18 04:55:16;;;;;;;7.47;6.78;;;;;;;;;;5054955;28;24616;-57
2021/12/18 04:57:42;;;;;;;8.77;6.57;;;;;;;;;;5058600;28;24980;-57
2021/12/18 05:00:08;;;;;;;8.55;7.07;;;;;;;;;;5050668;28;25066;-57
2021/12/18 05:02:37;;;;;;;7.80;6.57;;;;;;;;;;5060411;28;24446;-57
2021/12/18 05:05:03;;;;;;;7.78;6.85;;;;;;;;;;5052630;28;24427;-57
2021/12/18 05:07:29;;;;;;;8.00;6.63;;;;;;;;;;5051431;28;24416;-56
2021/12/18 05:09:54;;;;;;;7.37;6.40;;;;;;;;;;5055348;28;24774;-57
2021/12/18 05:12:19;;;;;;;7.83;6.00;;;;;;;;;;5047595;28;24435;-57
2021/12/18 05:14:44;;;;;;;7.47;5.50;;;;;;;;;;5052705;28;24476;-57
2021/12/18 05:17:09;;;;;;;6.40;5.70;;;;;;;;;;5053274;28;24427;-57
2021/12/18 05:19:35;;;;;;;6.60;5.60;;;;;;;;;;5062029;28;24488;-57
2021/12/18 05:22:00;;;;;;;6.93;5.50;;;;;;;;;;5057853;28;24411;-58
2021/12/18 05:24:25;;;;;;;6.15;5.20;;;;;;;;;;5059818;28;24504;-57
2021/12/18 05:26:50;;;;;;;6.15;5.20;;;;;;;;;;5054983;28;24899;-57
2021/12/18 05:29:15;;;;;;;6.03;4.70;;;;;;;;;;5053921;28;24410;-57
2021/12/18 05:31:41;;;;;;;4.70;4.20;;;;;;;;;;5060718;28;25231;-57
2021/12/18 05:34:06;;;;;;;5.10;4.37;;;;;;;;;;5059737;28;24439;-57
2021/12/18 05:36:35;;;;;;;5.10;4.60;;;;;;;;;;5052767;28;25255;-57
2021/12/18 05:39:04;;;;;;;4.55;3.92;;;;;;;;;;5047356;28;24443;-57
2021/12/18 05:41:30;;;;;;;4.70;4.10;;;;;;;;;;5051578;28;24944;-57
2021/12/18 05:43:56;;;;;;;5.60;4.40;;;;;;;;;;5060069;28;24426;-57
2021/12/18 05:46:21;;;;;;;6.50;4.40;;;;;;;;;;5055542;28;25244;-56
2021/12/18 05:48:46;;;;;;;4.82;4.32;;;;;;;;;;5052417;28;24506;-57
2021/12/18 05:51:11;;;;;;;5.63;5.05;;;;;;;;;;5048857;28;25209;-57
2021/12/18 05:53:37;;;;;;;5.32;4.47;;;;;;;;;;5054405;28;24490;-57
2021/12/18 05:56:02;;;;;;;5.55;4.50;;;;;;;;;;5059495;28;24430;-57
2021/12/18 05:58:27;;;;;;;5.87;3.80;;;;;;;;;;5054495;28;24764;-57
2021/12/18 06:00:52;;;;;;;4.15;3.30;;;;;;;;;;5053279;28;24472;-57
2021/12/18 06:03:17;;;;;;;3.90;3.20;;;;;;;;;;5057917;28;24426;-57
2021/12/18 06:05:42;;;;;;;4.03;3.25;;;;;;;;;;5054459;28;24434;-57
2021/12/18 06:08:11;;;;;;;3.00;2.60;;;;;;;;;;5046923;28;24438;-57
2021/12/18 06:10:37;;;;;;;3.45;3.13;;;;;;;;;;5058982;28;24513;-56
2021/12/18 06:13:03;;;;;;;3.27;2.93;;;;;;;;;;5058234;28;25122;-57
2021/12/18 06:15:29;;;;;;;2.90;2.60;;;;;;;;;;5052432;28;24419;-57
2021/12/18 06:17:55;;;;;;;3.33;3.03;;;;;;;;;;5049689;28;25054;-57
2021/12/18 06:20:20;;;;;;;3.40;3.10;;;;;;;;;;5058616;28;24482;-57
2021/12/18 06:22:45;;;;;;;3.23;2.80;;;;;;;;;;5057669;28;24398;-57
2021/12/18 06:25:11;;;;;;;3.10;2.60;;;;;;;;;;5056376;28;24865;-57
2021/12/18 06:27:36;;;;;;;3.58;2.80;;;;;;;;;;5061390;28;24410;-57
2021/12/18 06:30:02;;;;;;;2.60;2.40;;;;;;;;;;5057470;28;24418;-57
2021/12/18 06:32:27;;;;;;;2.40;2.20;;;;;;;;;;5060647;28;25019;-57
2021/12/18 06:34:52;;;;;;;3.20;2.90;;;;;;;;;;5059508;28;24520;-57
2021/12/18 06:37:17;;;;;;;2.70;2.50;;;;;;;;;;5048407;28;24420;-56
2021/12/18 06:39:42;;;;;;;3.03;2.72;;;;;;;;;;5047507;28;24501;-57
2021/12/18 06:42:07;;;;;;;3.10;2.90;;;;;;;;;;5057395;28;24394;-57
2021/12/18 06:44:33;;;;;;;3.00;2.80;;;;;;;;;;5050601;28;24979;-57
2021/12/18 06:46:58;;;;;;;3.20;2.90;;;;;;;;;;5044084;28;24472;-57
2021/12/18 06:49:23;;;;;;;3.30;3.00;;;;;;;;;;5039967;28;24791;-57
2021/12/18 06:51:48;;;;;;;3.80;3.50;;;;;;;;;;5046967;28;24433;-57
2021/12/18 06:54:13;;;;;;;3.60;3.30;;;;;;;;;;5055217;28;24410;-57
2021/12/18 06:56:38;;;;;;;3.50;3.20;;;;;;;;;;5044353;28;24430;-57
2021/12/18 06:59:04;;;;;;;3.70;3.30;;;;;;;;;;5052886;28;24492;-57
2021/12/18 07:01:29;;;;;;;3.90;3.40;;;;;;;;;;5061670;28;24517;-57
2021/12/18 07:03:54;;;;;;;4.63;4.23;;;;;;;;;;5058517;28;24468;-57
2021/12/18 07:06:19;;;;;;;4.60;4.10;;;;;;;;;;5054463;28;24438;-57
2021/12/18 07:08:44;;;;;;;4.90;4.40;;;;;;;;;;5052333;28;24525;-57
2021/12/18 07:11:09;;;;;;;4.70;4.30;;;;;;;;;;5054846;28;25055;-57
2021/12/18 07:13:34;;;;;;;5.22;4.72;;;;;;;;;;5061090;28;24457;-57
2021/12/18 07:16:00;;;;;;;5.20;4.70;;;;;;;;;;5059400;28;24426;-57
2021/12/18 07:18:25;;;;;;;5.60;5.10;;;;;;;;;;5057611;28;24423;-57
2021/12/18 07:20:52;;;;;;;5.93;5.27;;;;;;;;;;5061616;28;24769;-57
2021/12/18 07:23:17;;;;;;;5.60;5.10;;;;;;;;;;5059924;28;24457;-57
2021/12/18 07:25:42;;;;;;;5.25;4.63;;;;;;;;;;5059484;28;24528;-56
2021/12/18 07:28:07;;;;;;;4.70;4.30;;;;;;;;;;5060515;28;24426;-57
2021/12/18 07:30:33;;;;;;;5.60;5.05;;;;;;;;;;5062525;28;24469;-58
2021/12/18 07:32:58;;;;;;;5.90;5.05;;;;;;;;;;5055134;28;24411;-57
2021/12/18 07:35:23;;;;;;;6.57;5.97;;;;;;;;;;5061794;28;25007;-57
2021/12/18 07:37:48;;;;;;;6.95;6.25;;;;;;;;;;5054976;28;24411;-57
2021/12/18 07:40:13;;;;;;;6.53;5.80;;;;;;;;;;5049992;28;25025;-57
2021/12/18 07:42:38;;;;;;;6.67;6.00;;;;;;;;;;5055178;28;24436;-57
2021/12/18 07:45:04;;;;;;;7.13;6.10;;;;;;;;;;5059059;28;25106;-57
2021/12/18 07:47:29;;;;;;;6.55;5.93;;;;;;;;;;5059138;28;24411;-57
2021/12/18 07:49:55;;;;;;;6.30;5.70;;;;;;;;;;5057941;28;24414;-57
2021/12/18 07:52:21;;;;;;;5.87;5.27;;;;;;;;;;5043905;28;24439;-58
2021/12/18 07:54:46;;;;;;;6.00;5.40;;;;;;;;;;5056391;28;24556;-58
2021/12/18 07:57:12;;;;;;;5.55;5.05;;;;;;;;;;5059295;28;24531;-58
2021/12/18 07:59:37;;;;;;;4.30;3.87;;;;;;;;;;5056968;28;24769;-57
2021/12/18 08:02:04;;;;;;;3.93;3.53;;;;;;;;;;5056623;28;25069;-58
2021/12/18 08:04:30;;;;;;;3.55;3.25;;;;;;;;;;5057890;28;24433;-58
2021/12/18 08:06:55;;;;;;;3.80;3.40;;;;;;;;;;5054546;28;25042;-58
2021/12/18 08:09:20;;;;;;;3.10;2.80;;;;;;;;;;5052805;28;24418;-58
2021/12/18 08:11:45;;;;;;;4.03;3.50;;;;;;;;;;5058355;28;24510;-58
2021/12/18 08:14:10;;;;;;;3.72;3.35;;;;;;;;;;5053832;28;24422;-58
2021/12/18 08:16:35;;;;;;;3.28;2.90;;;;;;;;;;5059873;28;24753;-58
2021/12/18 08:19:00;;;;;;;3.40;2.70;;;;;;;;;;5060921;28;24539;-58
2021/12/18 08:21:26;;;;;;;2.95;2.65;;;;;;;;;;5058323;28;24407;-58
2021/12/18 08:23:51;;;;;;;2.80;2.60;;;;;;;;;;5063662;28;24476;-58
2021/12/18 08:26:16;;;;;;;3.10;2.80;;;;;;;;;;5063853;28;24990;-58
2021/12/18 08:28:41;;;;;;;2.60;2.40;;;;;;;;;;5062282;28;24433;-58
2021/12/18 08:31:06;;;;;;;2.40;2.10;;;;;;;;;;5060425;28;24429;-58
2021/12/18 08:33:31;;;;;;;3.20;2.90;;;;;;;;;;5058877;28;24844;-57
2021/12/18 08:35:56;;;;;;;3.50;2.60;;;;;;;;;;5060222;28;24443;-58
2021/12/18 08:38:22;;;;;;;3.10;2.80;;;;;;;;;;5059369;28;24821;-58
2021/12/18 08:40:49;;;;;;;3.00;2.70;;;;;;;;;;5055254;28;24468;-58
2021/12/18 08:43:14;;;;;;;3.00;2.80;;;;;;;;;;5055088;28;24449;-58
2021/12/18 08:45:39;;;;;;;3.20;2.90;;;;;;;;;;5057036;28;24494;-58
2021/12/18 08:48:04;;;;;;;4.10;3.70;;;;;;;;;;5060199;28;24986;-58
2021/12/18 08:50:30;;;;;;;3.17;2.88;;;;;;;;;;5069861;28;24417;-58
2021/12/18 08:52:55;;;;;;;4.00;3.60;;;;;;;;;;5058818;28;24422;-58
2021/12/18 08:55:21;;;;;;;4.30;3.90;;;;;;;;;;5059777;28;24434;-58
2021/12/18 08:57:46;;;;;;;4.00;3.60;;;;;;;;;;5060721;28;24412;-58
2021/12/18 09:00:13;;;;;;;4.20;3.80;;;;;;;;;;5042433;28;24415;-58
2021/12/18 09:02:40;;;;;;;4.10;3.80;;;;;;;;;;5054914;28;25033;-58
2021/12/18 09:05:05;;;;;;;4.60;4.10;;;;;;;;;;5055804;28;24435;-58
2021/12/18 09:07:31;;;;;;;4.25;3.85;;;;;;;;;;5051525;28;24476;-59
2021/12/18 09:09:56;;;;;;;4.10;3.70;;;;;;;;;;5052743;28;24975;-59
2021/12/18 09:12:21;;;;;;;4.60;4.20;;;;;;;;;;5060166;28;24456;-59
2021/12/18 09:14:46;;;;;;;5.17;4.20;;;;;;;;;;5051699;28;24514;-59
2021/12/18 09:17:11;;;;;;;4.72;4.32;;;;;;;;;;5051895;28;24421;-58
2021/12/18 09:19:37;;;;;;;5.17;4.20;;;;;;;;;;5053545;28;24480;-59
2021/12/18 09:22:04;;;;;;;4.90;4.40;;;;;;;;;;5044292;28;24462;-59
2021/12/18 09:24:29;;;;;;;4.75;4.20;;;;;;;;;;5054077;28;24453;-59
2021/12/18 09:26:54;;;;;;;4.35;3.95;;;;;;;;;;5061429;28;24420;-59
2021/12/18 09:29:19;;;;;;;4.50;4.10;;;;;;;;;;5049977;28;25593;-59
2021/12/18 09:31:44;;;;;;;4.80;4.30;;;;;;;;;;5056297;28;24997;-59
2021/12/18 09:34:10;;;;;;;4.77;4.37;;;;;;;;;;5061964;28;24621;-59
2021/12/18 09:36:35;;;;;;;4.63;4.23;;;;;;;;;;5055520;28;24410;-59
2021/12/18 09:39:00;;;;;;;5.10;4.50;;;;;;;;;;5055094;28;24441;-59
2021/12/18 09:41:26;;;;;;;4.70;4.30;;;;;;;;;;5042614;28;24975;-58
2021/12/18 09:43:51;;;;;;;4.97;4.20;;;;;;;;;;5053578;28;24967;-59
2021/12/18 09:46:16;;;;;;;4.80;4.10;;;;;;;;;;5056866;28;24453;-60
2021/12/18 09:48:43;;;;;;;4.90;4.40;;;;;;;;;;5058528;28;24497;-60
2021/12/18 09:51:12;;;;;;;4.75;4.22;;;;;;;;;;5061325;28;24514;-58
2021/12/18 09:53:38;;;;;;;4.68;4.10;;;;;;;;;;5043759;28;24419;-58
2021/12/18 09:56:04;;;;;;;4.23;3.83;;;;;;;;;;5055965;28;24426;-57
2021/12/18 09:58:29;;;;;;;4.50;4.10;;;;;;;;;;5058505;28;24491;-58
2021/12/18 10:00:54;;;;;;;4.35;3.90;;;;;;;;;;5060930;28;24486;-58
2021/12/18 10:03:20;;;;;;;3.97;3.67;;;;;;;;;;5062811;28;24421;-58
2021/12/18 10:05:45;;;;;;;4.00;3.60;;;;;;;;;;5059151;28;24455;-57
2021/12/18 10:08:15;;;;;;;4.35;3.95;;;;;;;;;;5054412;28;24427;-58
2021/12/18 10:10:59;;;;;;;4.15;3.75;;;;;;;;;;5062715;28;24613;-58
2021/12/18 10:13:24;;;;;;;6.05;4.70;;;;;;;;;;5055869;28;24426;-58
2021/12/18 10:16:11;;;;;;;4.50;4.10;;;;;;;;;;5046640;28;24414;-58
2021/12/18 10:18:37;;;;;;;5.28;4.78;;;;;;;;;;5062136;28;24421;-58
2021/12/18 10:21:13;;;;;;;4.70;4.13;;;;;;;;;;5057011;28;24456;-58
2021/12/18 10:23:39;;;;;;;4.78;4.28;;;;;;;;;;5057267;28;24940;-59
2021/12/18 10:26:05;;;;;;;5.03;4.53;;;;;;;;;;5058946;28;24442;-58
2021/12/18 10:28:42;;;;;;;5.10;4.40;;;;;;;;;;5042919;28;24434;-59
2021/12/18 10:31:07;;;;;;;5.75;5.15;;;;;;;;;;5039967;28;24426;-58
2021/12/18 10:33:35;;;;;;;5.10;4.50;;;;;;;;;;5042102;28;24422;-58
2021/12/18 10:36:01;;;;;;;5.65;5.05;;;;;;;;;;5036655;28;24450;-58
2021/12/18 10:38:44;;;;;;;5.33;4.83;;;;;;;;;;5056631;28;24591;-58
2021/12/18 10:41:28;;;;;;;5.95;5.20;;;;;;;;;;5062351;28;24398;-59
2021/12/18 10:43:58;;;;;;;5.43;4.93;;;;;;;;;;5060407;28;24414;-58
2021/12/18 10:46:23;;;;;;;5.90;5.30;;;;;;;;;;5057548;28;24457;-58
2021/12/18 10:48:53;;;;;;;5.70;5.10;;;;;;;;;;5057849;28;24486;-58
2021/12/18 10:51:23;;;;;;;6.70;6.00;;;;;;;;;;5054344;28;24407;-58
2021/12/18 10:53:48;;;;;;;7.05;6.35;;;;;;;;;;5055084;28;24529;-58
2021/12/18 10:56:13;;;;;;;7.90;7.10;;;;;;;;;;5046794;28;24501;-58
2021/12/18 10:58:38;;;;;;;7.68;6.90;;;;;;;;;;5044282;28;24944;-57
2021/12/18 11:01:05;;;;;;;8.60;7.25;;;;;;;;;;5046989;28;24586;-60
2021/12/18 11:03:35;;;;;;;9.10;8.20;;;;;;;;;;5064277;28;24920;-57
2021/12/18 11:06:05;;;;;;;7.90;7.10;;;;;;;;;;5051233;28;24447;-60
2021/12/18 11:08:30;;;;;;;7.60;6.80;;;;;;;;;;5055267;28;24515;-60
2021/12/18 11:13:50;;;;;;;7.55;6.85;;;;;;;;;;5060549;28;24406;-57
2021/12/18 11:16:17;;;;;;;7.20;6.50;;;;;;;;;;5057874;28;24419;-60
2021/12/18 11:18:42;;;;;;;9.90;6.65;;;;;;;;;;5060577;28;24487;-58
2021/12/18 11:21:07;;;;;;;6.18;5.57;;;;;;;;;;5052602;28;24426;-58
2021/12/18 11:23:39;;;;;;;5.10;4.60;;;;;;;;;;5060414;28;24948;-58
2021/12/18 11:26:05;;;;;;;4.88;4.47;;;;;;;;;;5059933;28;24419;-58
2021/12/18 11:28:30;;;;;;;5.22;4.78;;;;;;;;;;5063158;28;24927;-58
2021/12/18 11:30:56;;;;;;;4.70;4.40;;;;;;;;;;5063596;28;24473;-58
2021/12/18 11:33:21;;;;;;;7.57;6.00;;;;;;;;;;5047178;28;24548;-58
2021/12/18 11:35:47;;;;;;;6.50;5.30;;;;;;;;;;5050230;28;24446;-57
2021/12/18 11:38:14;;;;;;;4.82;4.43;;;;;;;;;;5052765;28;25038;-58
2021/12/18 11:40:39;;;;;;;5.30;4.80;;;;;;;;;;5050340;28;24431;-58
2021/12/18 11:43:08;;;;;;;6.00;5.40;;;;;;;;;;5048395;28;24816;-58
2021/12/18 11:45:34;;;;;;;5.00;4.50;;;;;;;;;;5059536;28;24552;-58
2021/12/18 11:48:00;;;;;;;5.93;5.32;;;;;;;;;;5059730;28;24423;-58
2021/12/18 11:50:31;;;;;;;5.75;5.25;;;;;;;;;;5053672;28;24978;-58
2021/12/18 11:53:32;;;;;;;10.40;7.90;;;;;;;;;;5051052;28;24422;-57
2021/12/18 11:56:01;;;;;;;6.30;5.70;;;;;;;;;;4996458;28;25007;-57
2021/12/18 11:58:28;;;;;;;5.00;4.60;;;;;;;;;;5049813;28;24781;-57
2021/12/18 12:00:58;;;;;;;5.77;5.27;;;;;;;;;;5054438;28;24521;-58
2021/12/18 12:03:36;;;;;;;5.13;4.70;;;;;;;;;;5054423;28;24967;-59
2021/12/18 12:06:03;;;;;;;5.78;5.28;;;;;;;;;;5052162;28;24453;-57
2021/12/18 12:08:36;;;;;;;5.63;5.13;;;;;;;;;;5057404;28;24415;-60
2021/12/18 12:11:18;;;;;;;5.05;4.60;;;;;;;;;;5061158;28;24848;-60
2021/12/18 12:14:02;;;;;;;5.65;5.05;;;;;;;;;;5050512;28;24419;-59
2021/12/18 12:16:42;;;;;;;5.47;4.97;;;;;;;;;;5057134;28;24464;-59
2021/12/18 12:19:09;;;;;;;5.10;4.60;;;;;;;;;;5049872;28;24430;-59
2021/12/18 12:21:40;;;;;;;5.85;5.05;;;;;;;;;;5060793;28;24407;-57
2021/12/18 12:24:06;;;;;;;5.28;4.70;;;;;;;;;;5058237;28;24495;-59
2021/12/18 12:26:32;;;;;;;4.93;4.50;;;;;;;;;;5061451;28;24465;-59
2021/12/18 12:28:57;;;;;;;4.43;4.03;;;;;;;;;;5047664;28;24445;-59
2021/12/18 12:31:22;;;;;;;4.65;4.25;;;;;;;;;;5052891;28;25035;-59
2021/12/18 12:33:49;;;;;;;4.40;3.97;;;;;;;;;;5040229;28;24458;-60
2021/12/18 12:36:24;;;;;;;3.90;3.50;;;;;;;;;;5049075;28;24442;-59
2021/12/18 12:39:00;;;;;;;4.00;3.70;;;;;;;;;;5043585;28;25037;-59
2021/12/18 12:41:52;;;;;;;4.00;3.70;;;;;;;;;;5054940;28;24418;-59
2021/12/18 12:44:26;;;;;;;3.10;2.90;;;;;;;;;;5041407;28;24429;-60
2021/12/18 12:47:09;;;;;;;3.50;3.20;;;;;;;;;;5060993;28;24533;-59
2021/12/18 12:49:35;;;;;;;3.45;3.15;;;;;;;;;;5055233;28;24960;-59
2021/12/18 12:52:16;;;;;;;3.40;3.10;;;;;;;;;;5050541;28;24418;-60
2021/12/18 12:54:45;;;;;;;3.30;3.00;;;;;;;;;;5050324;28;24418;-58
2021/12/18 12:57:19;;;;;;;3.00;2.80;;;;;;;;;;5057126;28;24426;-58
2021/12/18 12:59:44;;;;;;;3.17;2.88;;;;;;;;;;5049120;28;24434;-58
2021/12/18 13:02:10;;;;;;;3.00;2.70;;;;;;;;;;5040324;28;24442;-58
2021/12/18 13:04:35;;;;;;;3.20;2.90;;;;;;;;;;5044189;28;24437;-58
2021/12/18 13:07:04;;;;;;;3.28;2.97;;;;;;;;;;5055779;28;24422;-57
2021/12/18 13:09:29;;;;;;;4.53;3.65;;;;;;;;;;5054570;28;24426;-57
2021/12/18 13:12:04;;;;;;;3.10;2.90;;;;;;;;;;5058451;28;24907;-57
2021/12/18 13:14:36;;;;;;;3.40;3.10;;;;;;;;;;5045447;28;25024;-58
2021/12/18 13:17:01;;;;;;;4.10;3.70;;;;;;;;;;5049624;28;24555;-58
2021/12/18 13:19:27;;;;;;;4.13;3.83;;;;;;;;;;5057869;28;25431;-57
2021/12/18 13:21:52;;;;;;;4.50;4.10;;;;;;;;;;5057839;28;24381;-58
2021/12/18 13:24:17;;;;;;;4.60;4.20;;;;;;;;;;5050513;28;24458;-58
2021/12/18 13:26:44;;;;;;;4.90;4.40;;;;;;;;;;5040321;28;24987;-57
2021/12/18 13:29:16;;;;;;;5.03;4.53;;;;;;;;;;5038823;28;24426;-58
2021/12/18 13:31:47;;;;;;;4.87;4.43;;;;;;;;;;5034556;28;24493;-57
2021/12/18 13:34:14;;;;;;;4.90;4.50;;;;;;;;;;5037649;28;24446;-57
2021/12/18 13:36:39;;;;;;;4.80;4.40;;;;;;;;;;5053266;28;24510;-58
2021/12/18 13:39:12;;;;;;;4.60;4.20;;;;;;;;;;5043942;28;25130;-60
2021/12/18 13:41:38;;;;;;;4.95;4.55;;;;;;;;;;5040773;28;24416;-57
2021/12/18 13:44:03;;;;;;;5.60;5.10;;;;;;;;;;5035388;28;24434;-58
2021/12/18 13:46:29;;;;;;;4.80;4.40;;;;;;;;;;5037777;28;24518;-58
2021/12/18 13:48:54;;;;;;;4.93;4.47;;;;;;;;;;5057940;28;24464;-58
2021/12/18 13:51:20;;;;;;;5.70;5.10;;;;;;;;;;5057572;28;24411;-58
2021/12/18 13:53:59;;;;;;;5.30;4.80;;;;;;;;;;5059876;28;24422;-58
2021/12/18 13:56:25;;;;;;;6.10;5.50;;;;;;;;;;5052325;28;24430;-58
2021/12/18 13:58:51;;;;;;;5.60;5.00;;;;;;;;;;5045984;28;24431;-58
2021/12/18 14:01:24;;;;;;;5.70;5.20;;;;;;;;;;5048720;28;24763;-57
2021/12/18 14:04:03;;;;;;;5.40;4.90;;;;;;;;;;5053399;28;24426;-58
2021/12/18 14:06:34;;;;;;;5.40;4.90;;;;;;;;;;5050369;28;24968;-58
2021/12/18 14:09:01;;;;;;;5.55;5.05;;;;;;;;;;5055762;28;24415;-58
2021/12/18 14:11:30;;;;;;;5.55;5.05;;;;;;;;;;5055755;28;24521;-59
2021/12/18 14:14:24;;;;;;;4.90;4.50;;;;;;;;;;5051017;28;25472;-58
2021/12/18 14:16:50;;;;;;;4.82;4.43;;;;;;;;;;5037316;28;24494;-59
2021/12/18 14:19:24;;;;;;;5.40;4.90;;;;;;;;;;5054350;28;24418;-59
2021/12/18 14:21:49;;;;;;;5.03;4.63;;;;;;;;;;5052981;28;24516;-58
2021/12/18 14:24:15;;;;;;;4.43;4.03;;;;;;;;;;5055287;28;24479;-58
2021/12/18 14:26:52;;;;;;;5.57;5.07;;;;;;;;;;5056908;28;24431;-58
2021/12/18 14:29:17;;;;;;;5.75;4.88;;;;;;;;;;5059166;28;24514;-58
2021/12/18 14:31:44;;;;;;;4.50;4.10;;;;;;;;;;5062907;28;24526;-57
2021/12/18 14:34:14;;;;;;;5.40;4.90;;;;;;;;;;5048886;28;25165;-58
2021/12/18 14:36:39;;;;;;;5.40;4.90;;;;;;;;;;5059014;28;24486;-59
2021/12/18 14:39:04;;;;;;;4.90;4.50;;;;;;;;;;5061201;28;24562;-59
2021/12/18 14:41:29;;;;;;;5.20;4.80;;;;;;;;;;5061291;28;24510;-58
2021/12/18 14:44:05;;;;;;;5.70;5.20;;;;;;;;;;5058884;28;24425;-59
2021/12/18 14:46:31;;;;;;;4.63;4.22;;;;;;;;;;5041466;28;24434;-59
2021/12/18 14:48:56;;;;;;;5.10;4.60;;;;;;;;;;5037422;28;24419;-59
2021/12/18 14:51:27;;;;;;;4.80;4.40;;;;;;;;;;5044093;28;24415;-58
2021/12/18 14:53:59;;;;;;;4.80;4.40;;;;;;;;;;5042951;28;24403;-59
2021/12/18 14:56:24;;;;;;;5.30;4.90;;;;;;;;;;5042291;28;24526;-58
2021/12/18 14:58:50;;;;;;;4.47;4.07;;;;;;;;;;5058590;28;24959;-59
2021/12/18 15:01:17;;;;;;;5.10;4.70;;;;;;;;;;5059356;28;24409;-59
2021/12/18 15:03:44;;;;;;;5.40;4.90;;;;;;;;;;5058459;28;25163;-58
2021/12/18 15:06:20;;;;;;;5.68;5.18;;;;;;;;;;5061658;28;24435;-59
2021/12/18 15:08:53;;;;;;;5.65;5.15;;;;;;;;;;5062052;28;24414;-59
2021/12/18 15:11:22;;;;;;;5.80;5.30;;;;;;;;;;5058544;28;25032;-59
2021/12/18 15:13:49;;;;;;;5.90;5.30;;;;;;;;;;5041851;28;25034;-59
2021/12/18 15:16:26;;;;;;;6.22;5.72;;;;;;;;;;5041403;28;24485;-59
2021/12/18 15:18:51;;;;;;;5.95;5.45;;;;;;;;;;5062757;28;24464;-59